createdAt,value
2017-12-23T00:00:05.732Z,12.24
2017-12-23T00:01:06.406Z,12.24
2017-12-23T00:02:06.677Z,12.24
2017-12-23T00:03:07.200Z,12.25
2017-12-23T00:04:07.621Z,12.24
2017-12-23T00:05:08.092Z,12.26
2017-12-23T00:06:08.567Z,12.26
2017-12-23T00:07:09.037Z,12.27
2017-12-23T00:08:09.516Z,12.29
2017-12-23T00:09:09.982Z,12.29
2017-12-23T00:10:10.454Z,12.29
2017-12-23T00:11:10.930Z,12.29
2017-12-23T00:12:11.400Z,12.29
2017-12-23T00:13:11.872Z,12.28
2017-12-23T00:14:12.344Z,12.28
2017-12-23T00:15:12.819Z,12.29
2017-12-23T00:16:13.291Z,12.28
2017-12-23T00:17:13.746Z,12.28
2017-12-23T00:18:14.211Z,12.30
2017-12-23T00:19:14.684Z,12.29
2017-12-23T00:20:15.155Z,12.27
2017-12-23T00:21:15.629Z,12.26
2017-12-23T00:22:16.101Z,12.26
2017-12-23T00:23:16.777Z,12.26
2017-12-23T00:24:17.047Z,12.25
2017-12-23T00:25:17.519Z,12.25
2017-12-23T00:26:17.992Z,12.25
2017-12-23T00:27:18.464Z,12.26
2017-12-23T00:28:18.988Z,12.25
2017-12-23T00:29:19.410Z,12.25
2017-12-23T00:30:19.882Z,12.25
2017-12-23T00:31:20.356Z,12.25
2017-12-23T00:32:20.835Z,12.24
2017-12-23T00:33:21.303Z,12.24
2017-12-23T00:34:21.774Z,12.24
2017-12-23T00:35:22.248Z,12.24
2017-12-23T00:36:22.720Z,12.25
2017-12-23T00:37:23.192Z,12.24
2017-12-23T00:38:23.664Z,12.24
2017-12-23T00:39:24.138Z,12.24
2017-12-23T00:40:24.611Z,12.23
2017-12-23T00:41:25.083Z,12.22
2017-12-23T00:42:25.557Z,12.24
2017-12-23T00:43:26.029Z,12.23
2017-12-23T00:44:26.501Z,12.22
2017-12-23T00:45:26.977Z,12.22
2017-12-23T00:46:27.447Z,12.23
2017-12-23T00:47:27.926Z,12.24
2017-12-23T00:48:28.394Z,12.23
2017-12-23T00:49:28.867Z,12.22
2017-12-23T00:50:29.338Z,12.22
2017-12-23T00:51:29.816Z,12.24
2017-12-23T00:52:30.284Z,12.25
2017-12-23T00:53:30.757Z,12.24
2017-12-23T00:54:31.229Z,12.23
2017-12-23T00:55:31.701Z,12.25
2017-12-23T00:56:32.175Z,12.23
2017-12-23T00:57:32.650Z,12.24
2017-12-23T00:58:33.120Z,12.24
2017-12-23T00:59:33.595Z,12.25
2017-12-23T01:00:34.067Z,12.24
2017-12-23T01:01:34.542Z,12.25
2017-12-23T01:02:35.015Z,12.25
2017-12-23T01:03:35.486Z,12.26
2017-12-23T01:04:35.958Z,12.26
2017-12-23T01:05:36.433Z,12.26
2017-12-23T01:06:36.907Z,12.25
2017-12-23T01:07:37.381Z,12.25
2017-12-23T01:08:37.851Z,12.25
2017-12-23T01:09:38.321Z,12.25
2017-12-23T01:10:38.794Z,12.26
2017-12-23T01:11:39.270Z,12.26
2017-12-23T01:12:39.744Z,12.26
2017-12-23T01:13:40.264Z,12.26
2017-12-23T01:14:40.685Z,12.26
2017-12-23T01:15:41.158Z,12.25
2017-12-23T01:16:41.633Z,12.25
2017-12-23T01:17:42.111Z,12.25
2017-12-23T01:18:42.576Z,12.26
2017-12-23T01:19:43.055Z,12.26
2017-12-23T01:20:43.523Z,12.27
2017-12-23T01:21:43.996Z,12.28
2017-12-23T01:22:44.469Z,12.27
2017-12-23T01:23:44.941Z,12.26
2017-12-23T01:24:45.417Z,12.26
2017-12-23T01:25:45.887Z,12.25
2017-12-23T01:26:46.361Z,12.25
2017-12-23T01:27:46.831Z,12.26
2017-12-23T01:28:47.306Z,12.25
2017-12-23T01:29:47.778Z,12.23
2017-12-23T01:30:48.252Z,12.22
2017-12-23T01:31:49.066Z,12.22
2017-12-23T01:32:49.196Z,12.21
2017-12-23T01:33:49.670Z,12.21
2017-12-23T01:34:50.141Z,12.22
2017-12-23T01:35:50.616Z,12.20
2017-12-23T01:36:51.088Z,12.21
2017-12-23T01:37:51.562Z,12.21
2017-12-23T01:38:52.373Z,12.19
2017-12-23T01:39:52.512Z,12.18
2017-12-23T01:40:52.980Z,12.18
2017-12-23T01:41:53.450Z,12.19
2017-12-23T01:42:53.923Z,12.19
2017-12-23T01:43:54.394Z,12.17
2017-12-23T01:44:54.867Z,12.19
2017-12-23T01:45:55.342Z,12.19
2017-12-23T01:46:55.812Z,12.19
2017-12-23T01:47:56.284Z,12.20
2017-12-23T01:48:57.101Z,12.18
2017-12-23T01:49:57.572Z,12.17
2017-12-23T01:50:57.701Z,12.17
2017-12-23T01:51:58.175Z,12.18
2017-12-23T01:52:58.648Z,12.19
2017-12-23T01:53:59.173Z,12.17
2017-12-23T01:54:59.593Z,12.16
2017-12-23T01:56:00.105Z,12.15
2017-12-23T01:57:00.538Z,12.15
2017-12-23T01:58:01.060Z,12.15
2017-12-23T01:59:01.481Z,12.13
2017-12-23T02:00:01.955Z,12.14
2017-12-23T02:01:02.429Z,12.14
2017-12-23T02:02:02.900Z,12.14
2017-12-23T02:03:03.713Z,12.14
2017-12-23T02:04:03.844Z,12.13
2017-12-23T02:05:04.320Z,12.12
2017-12-23T02:06:04.790Z,12.14
2017-12-23T02:07:05.266Z,12.13
2017-12-23T02:08:05.733Z,12.15
2017-12-23T02:09:06.207Z,12.15
2017-12-23T02:10:06.679Z,12.13
2017-12-23T02:11:07.150Z,12.14
2017-12-23T02:12:07.622Z,12.13
2017-12-23T02:13:08.095Z,12.13
2017-12-23T02:14:08.618Z,12.13
2017-12-23T02:15:09.039Z,12.14
2017-12-23T02:16:09.512Z,12.16
2017-12-23T02:17:09.985Z,12.14
2017-12-23T02:18:10.458Z,12.15
2017-12-23T02:19:10.927Z,12.14
2017-12-23T02:20:11.401Z,12.13
2017-12-23T02:21:11.874Z,12.11
2017-12-23T02:22:12.346Z,12.11
2017-12-23T02:23:12.818Z,12.10
2017-12-23T02:24:13.491Z,12.09
2017-12-23T02:25:13.968Z,12.09
2017-12-23T02:26:14.235Z,12.09
2017-12-23T02:27:14.705Z,12.08
2017-12-23T02:28:15.177Z,12.09
2017-12-23T02:29:15.650Z,12.10
2017-12-23T02:30:16.122Z,12.11
2017-12-23T02:31:16.594Z,12.11
2017-12-23T02:32:17.068Z,12.10
2017-12-23T02:33:17.539Z,12.10
2017-12-23T02:34:18.012Z,12.11
2017-12-23T02:35:18.483Z,12.12
2017-12-23T02:36:18.958Z,12.13
2017-12-23T02:37:19.429Z,12.12
2017-12-23T02:38:19.901Z,12.11
2017-12-23T02:39:20.373Z,12.11
2017-12-23T02:40:20.845Z,12.11
2017-12-23T02:41:21.318Z,12.11
2017-12-23T02:42:21.792Z,12.12
2017-12-23T02:43:22.261Z,12.12
2017-12-23T02:44:22.784Z,12.13
2017-12-23T02:45:23.208Z,12.14
2017-12-23T02:46:23.680Z,12.13
2017-12-23T02:47:24.149Z,12.13
2017-12-23T02:48:24.622Z,12.13
2017-12-23T02:49:25.095Z,12.14
2017-12-23T02:50:25.571Z,12.15
2017-12-23T02:51:26.040Z,12.14
2017-12-23T02:52:26.512Z,12.15
2017-12-23T02:53:26.986Z,12.15
2017-12-23T02:54:27.456Z,12.15
2017-12-23T02:55:27.928Z,12.15
2017-12-23T02:56:28.399Z,12.14
2017-12-23T02:57:28.875Z,12.13
2017-12-23T02:58:29.348Z,12.14
2017-12-23T02:59:29.868Z,12.13
2017-12-23T03:00:30.290Z,12.13
2017-12-23T03:01:30.774Z,12.13
2017-12-23T03:03:31.719Z,12.14
2017-12-23T03:04:32.188Z,12.13
2017-12-23T03:05:32.665Z,12.12
2017-12-23T03:06:33.137Z,12.13
2017-12-23T03:07:33.609Z,12.14
2017-12-23T03:08:34.068Z,12.13
2017-12-23T03:09:46.531Z,12.12
2017-12-23T03:10:35.025Z,12.13
2017-12-23T03:11:35.497Z,12.12
2017-12-23T03:13:36.441Z,12.12
2017-12-23T03:14:36.966Z,12.11
2017-12-23T03:17:38.330Z,12.11
2017-12-23T03:18:38.837Z,12.11
2017-12-23T03:19:39.275Z,12.11
2017-12-23T03:20:39.732Z,12.10
2017-12-23T03:21:40.251Z,12.10
2017-12-23T03:22:40.689Z,12.10
2017-12-23T03:23:41.147Z,12.11
2017-12-23T03:24:41.638Z,12.10
2017-12-23T03:25:42.107Z,12.10
2017-12-23T03:26:42.577Z,12.10
2017-12-23T03:27:43.050Z,12.09
2017-12-23T03:29:43.994Z,12.07
2017-12-23T03:30:44.454Z,12.07
2017-12-23T03:31:44.937Z,12.09
2017-12-23T03:33:45.883Z,12.09
2017-12-23T03:34:46.545Z,12.09
2017-12-23T03:36:47.286Z,12.09
2017-12-23T03:37:47.756Z,12.09
2017-12-23T03:39:48.764Z,12.10
2017-12-23T03:40:49.187Z,12.10
2017-12-23T03:42:50.131Z,12.10
2017-12-23T03:43:50.601Z,12.09
2017-12-23T03:44:51.075Z,12.09
2017-12-23T03:45:51.547Z,12.09
2017-12-23T03:46:52.012Z,12.10
2017-12-23T03:47:52.491Z,12.08
2017-12-23T03:48:52.963Z,12.09
2017-12-23T03:49:53.486Z,12.08
2017-12-23T03:50:53.895Z,12.08
2017-12-23T03:51:54.378Z,12.08
2017-12-23T03:52:54.851Z,12.08
2017-12-23T03:53:55.320Z,12.07
2017-12-23T03:54:55.797Z,12.07
2017-12-23T03:55:56.266Z,12.08
2017-12-23T03:56:56.737Z,12.08
2017-12-23T03:57:57.196Z,12.07
2017-12-23T03:58:57.684Z,12.06
2017-12-23T03:59:58.490Z,12.06
2017-12-23T04:00:58.624Z,12.05
2017-12-23T04:01:59.106Z,12.05
2017-12-23T04:02:59.556Z,12.04
2017-12-23T04:04:00.056Z,12.05
2017-12-23T04:05:00.512Z,12.05
2017-12-23T04:06:00.991Z,12.04
2017-12-23T04:07:01.461Z,12.05
2017-12-23T04:08:01.928Z,12.02
2017-12-23T04:09:02.400Z,12.01
2017-12-23T04:10:02.874Z,12.00
2017-12-23T04:11:03.354Z,11.98
2017-12-23T04:13:04.274Z,11.98
2017-12-23T04:14:04.761Z,11.96
2017-12-23T04:15:05.282Z,11.94
2017-12-23T04:16:05.703Z,11.93
2017-12-23T04:17:06.172Z,11.92
2017-12-23T04:18:06.637Z,11.90
2017-12-23T04:19:07.136Z,11.88
2017-12-23T04:21:08.063Z,11.87
2017-12-23T04:22:08.539Z,11.87
2017-12-23T04:23:09.010Z,11.85
2017-12-23T04:24:09.478Z,11.84
2017-12-23T04:25:09.952Z,11.84
2017-12-23T04:26:10.423Z,11.83
2017-12-23T04:27:10.895Z,11.82
2017-12-23T04:28:11.352Z,11.81
2017-12-23T04:29:11.836Z,11.79
2017-12-23T04:30:12.310Z,11.78
2017-12-23T04:32:13.238Z,11.76
2017-12-23T04:33:13.724Z,11.76
2017-12-23T04:34:14.196Z,11.75
2017-12-23T04:35:14.670Z,11.74
2017-12-23T04:37:15.610Z,11.72
2017-12-23T04:38:16.081Z,11.72
2017-12-23T04:39:16.556Z,11.69
2017-12-23T04:40:17.077Z,11.69
2017-12-23T04:41:17.483Z,11.67
2017-12-23T04:42:17.968Z,11.66
2017-12-23T04:43:18.441Z,11.64
2017-12-23T04:44:18.912Z,11.65
2017-12-23T04:46:19.857Z,11.63
2017-12-23T04:48:20.797Z,11.60
2017-12-23T04:49:21.269Z,11.61
2017-12-23T04:51:22.215Z,11.59
2017-12-23T04:53:23.154Z,11.58
2017-12-23T04:54:23.630Z,11.57
2017-12-23T04:56:24.570Z,11.56
2017-12-23T04:57:25.044Z,11.54
2017-12-23T04:58:25.514Z,11.54
2017-12-23T04:59:25.989Z,11.53
2017-12-23T05:00:26.443Z,11.52
2017-12-23T05:01:26.928Z,11.53
2017-12-23T05:02:27.398Z,11.53
2017-12-23T05:03:27.868Z,11.53
2017-12-23T05:04:28.341Z,11.54
2017-12-23T05:05:28.814Z,11.53
2017-12-23T05:06:29.286Z,11.53
2017-12-23T05:07:29.756Z,11.54
2017-12-23T05:08:30.230Z,11.54
2017-12-23T05:09:30.699Z,11.54
2017-12-23T05:10:31.157Z,11.53
2017-12-23T05:11:31.692Z,11.53
2017-12-23T05:12:32.114Z,11.51
2017-12-23T05:13:32.584Z,11.51
2017-12-23T05:14:33.055Z,11.50
2017-12-23T05:15:33.528Z,11.51
2017-12-23T05:16:33.997Z,11.52
2017-12-23T05:17:34.456Z,11.51
2017-12-23T05:18:34.940Z,11.50
2017-12-23T05:19:35.413Z,11.50
2017-12-23T05:20:35.883Z,11.49
2017-12-23T05:21:48.636Z,11.50
2017-12-23T05:22:36.828Z,11.50
2017-12-23T05:24:37.770Z,11.48
2017-12-23T05:25:38.241Z,11.50
2017-12-23T05:26:38.714Z,11.49
2017-12-23T05:27:39.171Z,11.50
2017-12-23T05:28:39.657Z,11.51
2017-12-23T05:29:40.126Z,11.51
2017-12-23T05:30:40.599Z,11.52
2017-12-23T05:32:41.529Z,11.54
2017-12-23T05:33:42.013Z,11.54
2017-12-23T05:34:42.470Z,11.56
2017-12-23T05:35:42.956Z,11.56
2017-12-23T05:36:43.478Z,11.57
2017-12-23T05:37:43.898Z,11.58
2017-12-23T05:38:44.368Z,11.58
2017-12-23T05:39:44.844Z,11.59
2017-12-23T05:40:45.314Z,11.59
2017-12-23T05:41:45.775Z,11.59
2017-12-23T05:43:46.728Z,11.62
2017-12-23T05:44:47.198Z,11.61
2017-12-23T05:45:47.656Z,11.61
2017-12-23T05:46:48.192Z,11.61
2017-12-23T05:47:48.618Z,11.61
2017-12-23T05:48:49.084Z,11.60
2017-12-23T05:50:50.017Z,11.60
2017-12-23T05:51:50.499Z,11.61
2017-12-23T05:52:50.969Z,11.62
2017-12-23T05:53:51.442Z,11.61
2017-12-23T05:54:51.913Z,11.60
2017-12-23T05:55:52.386Z,11.61
2017-12-23T05:56:52.907Z,11.61
2017-12-23T05:57:53.315Z,11.62
2017-12-23T05:58:53.800Z,11.60
2017-12-23T05:59:54.272Z,11.61
2017-12-23T06:00:54.744Z,11.60
2017-12-23T06:03:56.161Z,11.62
2017-12-23T06:04:56.628Z,11.61
2017-12-23T06:05:57.086Z,11.61
2017-12-23T06:06:57.622Z,11.59
2017-12-23T06:08:58.515Z,11.59
2017-12-23T06:09:58.985Z,11.59
2017-12-23T06:10:59.458Z,11.58
2017-12-23T06:11:59.916Z,11.57
2017-12-23T06:13:00.400Z,11.57
2017-12-23T06:14:00.873Z,11.56
2017-12-23T06:15:01.348Z,11.56
2017-12-23T06:16:01.823Z,11.55
2017-12-23T06:17:02.338Z,11.55
2017-12-23T06:18:02.744Z,11.54
2017-12-23T06:19:03.230Z,11.55
2017-12-23T06:20:03.705Z,11.54
2017-12-23T06:22:04.696Z,11.51
2017-12-23T06:23:05.116Z,11.52
2017-12-23T06:25:06.059Z,11.50
2017-12-23T06:26:06.536Z,11.50
2017-12-23T06:27:07.002Z,11.49
2017-12-23T06:28:07.474Z,11.49
2017-12-23T06:29:07.932Z,11.49
2017-12-23T06:30:08.417Z,11.49
2017-12-23T06:31:08.888Z,11.49
2017-12-23T06:33:09.832Z,11.49
2017-12-23T06:34:10.303Z,11.50
2017-12-23T06:35:10.774Z,11.50
2017-12-23T06:36:11.241Z,11.50
2017-12-23T06:37:23.695Z,11.49
2017-12-23T06:38:12.192Z,11.49
2017-12-23T06:39:12.664Z,11.49
2017-12-23T06:40:13.138Z,11.48
2017-12-23T06:41:13.603Z,11.47
2017-12-23T06:43:14.534Z,11.46
2017-12-23T06:45:15.488Z,11.44
2017-12-23T06:46:15.948Z,11.44
2017-12-23T06:49:17.374Z,11.45
2017-12-23T06:50:17.848Z,11.44
2017-12-23T06:53:19.248Z,11.42
2017-12-23T06:54:31.724Z,11.41
2017-12-23T06:55:20.191Z,11.41
2017-12-23T06:56:20.678Z,11.41
2017-12-23T06:57:21.133Z,11.40
2017-12-23T06:58:21.618Z,11.40
2017-12-23T06:59:22.141Z,11.40
2017-12-23T07:00:22.564Z,11.39
2017-12-23T07:01:23.034Z,11.37
2017-12-23T07:02:23.505Z,11.37
2017-12-23T07:03:23.978Z,11.36
2017-12-23T07:04:24.446Z,11.36
2017-12-23T07:05:24.903Z,11.36
2017-12-23T07:06:25.390Z,11.34
2017-12-23T07:08:26.333Z,11.33
2017-12-23T07:09:26.805Z,11.31
2017-12-23T07:10:27.275Z,11.31
2017-12-23T07:11:27.748Z,11.30
2017-12-23T07:12:28.207Z,11.30
2017-12-23T07:13:28.676Z,11.30
2017-12-23T07:14:29.148Z,11.30
2017-12-23T07:15:29.619Z,11.30
2017-12-23T07:16:30.104Z,11.31
2017-12-23T07:17:30.574Z,11.31
2017-12-23T07:18:31.034Z,11.33
2017-12-23T07:19:31.516Z,11.36
2017-12-23T07:20:31.992Z,11.39
2017-12-23T07:21:32.459Z,11.40
2017-12-23T07:22:32.918Z,11.42
2017-12-23T07:23:33.404Z,11.44
2017-12-23T07:24:33.874Z,11.45
2017-12-23T07:25:34.348Z,11.48
2017-12-23T07:26:34.818Z,11.51
2017-12-23T07:27:35.280Z,11.52
2017-12-23T07:28:35.760Z,11.52
2017-12-23T07:29:36.233Z,11.52
2017-12-23T07:30:36.704Z,11.54
2017-12-23T07:31:37.176Z,11.55
2017-12-23T07:32:37.647Z,11.54
2017-12-23T07:33:38.120Z,11.56
2017-12-23T07:34:38.639Z,11.57
2017-12-23T07:35:39.061Z,11.58
2017-12-23T07:37:40.003Z,11.58
2017-12-23T07:38:40.482Z,11.59
2017-12-23T07:39:40.948Z,11.59
2017-12-23T07:40:41.419Z,11.59
2017-12-23T07:41:41.877Z,11.59
2017-12-23T07:42:42.361Z,11.59
2017-12-23T07:43:42.820Z,11.62
2017-12-23T07:44:54.735Z,11.64
2017-12-23T07:45:43.782Z,11.66
2017-12-23T07:46:44.255Z,11.69
2017-12-23T07:47:44.722Z,11.71
2017-12-23T07:48:45.193Z,11.72
2017-12-23T07:50:46.122Z,11.77
2017-12-23T07:51:46.607Z,11.81
2017-12-23T07:52:47.079Z,11.84
2017-12-23T07:53:47.556Z,11.87
2017-12-23T07:54:48.022Z,11.91
2017-12-23T07:55:48.481Z,11.93
2017-12-23T07:56:48.967Z,11.97
2017-12-23T07:57:49.436Z,11.99
2017-12-23T07:59:50.432Z,12.06
2017-12-23T08:01:51.323Z,12.13
2017-12-23T08:02:51.797Z,12.16
2017-12-23T08:03:52.268Z,12.20
2017-12-23T08:04:52.740Z,12.22
2017-12-23T08:05:53.211Z,12.24
2017-12-23T08:06:53.684Z,12.25
2017-12-23T08:07:54.144Z,12.27
2017-12-23T08:08:54.630Z,12.29
2017-12-23T08:09:55.103Z,12.29
2017-12-23T08:11:56.044Z,12.34
2017-12-23T08:12:56.522Z,12.34
2017-12-23T08:13:56.985Z,12.35
2017-12-23T08:15:58.137Z,12.37
2017-12-23T08:16:58.392Z,12.39
2017-12-23T08:18:59.350Z,12.41
2017-12-23T08:19:59.824Z,12.44
2017-12-23T08:21:00.296Z,12.47
2017-12-23T08:22:00.766Z,12.47
2017-12-23T08:23:01.239Z,12.50
2017-12-23T08:24:01.700Z,12.51
2017-12-23T08:25:02.186Z,12.53
2017-12-23T08:26:02.706Z,12.56
2017-12-23T08:27:03.128Z,12.63
2017-12-23T08:30:04.547Z,12.82
2017-12-23T08:31:05.018Z,12.87
2017-12-23T08:32:05.479Z,12.95
2017-12-23T08:33:05.966Z,13.01
2017-12-23T08:34:06.437Z,13.09
2017-12-23T08:35:06.910Z,13.16
2017-12-23T08:37:07.855Z,13.28
2017-12-23T08:38:08.331Z,13.34
2017-12-23T08:39:08.803Z,13.39
2017-12-23T08:40:09.275Z,13.47
2017-12-23T08:41:09.748Z,13.51
2017-12-23T08:42:10.231Z,13.56
2017-12-23T08:43:10.682Z,13.60
2017-12-23T08:44:11.170Z,13.65
2017-12-23T08:45:11.643Z,13.69
2017-12-23T08:46:12.122Z,13.74
2017-12-23T08:47:12.588Z,13.77
2017-12-23T08:48:13.063Z,13.81
2017-12-23T08:49:13.524Z,13.85
2017-12-23T08:51:14.483Z,13.93
2017-12-23T08:53:15.420Z,14.04
2017-12-23T08:54:15.905Z,14.07
2017-12-23T08:55:16.380Z,14.13
2017-12-23T08:56:17.056Z,14.17
2017-12-23T08:57:17.328Z,14.22
2017-12-23T08:58:17.801Z,14.25
2017-12-23T09:01:19.276Z,14.36
2017-12-23T09:02:19.685Z,14.39
2017-12-23T09:03:20.180Z,14.43
2017-12-23T09:04:20.648Z,14.48
2017-12-23T09:05:21.121Z,14.50
2017-12-23T09:06:21.785Z,14.54
2017-12-23T09:07:22.074Z,14.56
2017-12-23T09:08:22.544Z,14.59
2017-12-23T09:09:23.020Z,14.64
2017-12-23T09:10:23.494Z,14.67
2017-12-23T09:11:23.956Z,14.71
2017-12-23T09:12:24.445Z,14.74
2017-12-23T09:13:24.923Z,14.78
2017-12-23T09:14:25.382Z,14.81
2017-12-23T09:15:25.872Z,14.85
2017-12-23T09:16:26.347Z,14.88
2017-12-23T09:17:26.820Z,14.91
2017-12-23T09:18:27.297Z,14.95
2017-12-23T09:19:27.804Z,14.98
2017-12-23T09:20:28.246Z,15.02
2017-12-23T09:21:28.712Z,15.05
2017-12-23T09:22:29.197Z,15.06
2017-12-23T09:23:29.671Z,15.09
2017-12-23T09:24:30.147Z,15.11
2017-12-23T09:25:30.624Z,15.15
2017-12-23T09:26:31.098Z,15.18
2017-12-23T09:27:31.580Z,15.20
2017-12-23T09:28:32.054Z,15.23
2017-12-23T09:29:32.525Z,15.26
2017-12-23T09:30:32.987Z,15.29
2017-12-23T09:31:33.527Z,15.32
2017-12-23T09:32:33.954Z,15.32
2017-12-23T09:33:34.431Z,15.34
2017-12-23T09:34:34.910Z,15.35
2017-12-23T09:35:35.366Z,15.37
2017-12-23T09:38:36.808Z,15.43
2017-12-23T09:39:37.285Z,15.43
2017-12-23T09:40:37.761Z,15.43
2017-12-23T09:41:38.235Z,15.45
2017-12-23T09:42:38.699Z,15.46
2017-12-23T09:43:39.188Z,15.48
2017-12-23T09:44:39.666Z,15.48
2017-12-23T09:45:40.145Z,15.50
2017-12-23T09:46:51.901Z,15.52
2017-12-23T09:47:41.093Z,15.53
2017-12-23T09:48:41.578Z,15.54
2017-12-23T09:50:42.525Z,15.59
2017-12-23T09:53:43.941Z,15.65
2017-12-23T09:55:44.907Z,15.69
2017-12-23T09:57:45.861Z,15.71
2017-12-23T09:58:46.338Z,15.74
2017-12-23T09:59:46.818Z,15.75
2017-12-23T10:00:47.278Z,15.78
2017-12-23T10:01:47.766Z,15.80
2017-12-23T10:02:48.242Z,15.81
2017-12-23T10:03:48.724Z,15.80
2017-12-23T10:04:49.188Z,15.77
2017-12-23T10:05:49.679Z,15.73
2017-12-23T10:06:50.157Z,15.68
2017-12-23T10:08:51.106Z,15.50
2017-12-23T10:09:51.582Z,15.39
2017-12-23T10:10:52.064Z,15.27
2017-12-23T10:11:52.536Z,15.13
2017-12-23T10:12:53.049Z,14.99
2017-12-23T10:13:53.488Z,14.84
2017-12-23T10:14:53.966Z,14.70
2017-12-23T10:17:55.392Z,14.21
2017-12-23T10:18:55.866Z,14.04
2017-12-23T10:19:56.328Z,13.87
2017-12-23T10:20:56.814Z,13.72
2017-12-23T10:21:57.299Z,13.56
2017-12-23T10:25:59.189Z,13.08
2017-12-23T10:26:59.648Z,13.02
2017-12-23T10:28:00.134Z,12.96
2017-12-23T10:29:00.629Z,12.94
2017-12-23T10:30:01.082Z,12.94
2017-12-23T10:31:01.555Z,12.94
2017-12-23T10:32:02.031Z,12.97
2017-12-23T10:33:02.498Z,13.00
2017-12-23T10:35:03.431Z,13.09
2017-12-23T10:37:04.390Z,13.21
2017-12-23T10:38:04.862Z,13.29
2017-12-23T10:39:05.321Z,13.38
2017-12-23T10:40:05.810Z,13.46
2017-12-23T10:41:06.269Z,13.55
2017-12-23T10:42:06.753Z,13.65
2017-12-23T10:43:07.226Z,13.75
2017-12-23T10:44:07.699Z,13.85
2017-12-23T10:45:08.175Z,13.94
2017-12-23T10:46:08.633Z,14.03
2017-12-23T10:48:09.590Z,14.21
2017-12-23T10:49:10.117Z,14.31
2017-12-23T10:50:10.541Z,14.40
2017-12-23T10:51:11.012Z,14.49
2017-12-23T10:52:11.486Z,14.57
2017-12-23T10:53:11.960Z,14.65
2017-12-23T10:54:12.484Z,14.74
2017-12-23T10:56:13.384Z,14.90
2017-12-23T10:58:14.330Z,15.08
2017-12-23T10:59:14.855Z,15.14
2017-12-23T11:00:15.277Z,15.20
2017-12-23T11:01:15.740Z,15.26
2017-12-23T11:02:16.229Z,15.33
2017-12-23T11:04:17.231Z,15.45
2017-12-23T11:05:17.652Z,15.52
2017-12-23T11:06:18.134Z,15.58
2017-12-23T11:07:18.602Z,15.64
2017-12-23T11:09:19.561Z,15.74
2017-12-23T11:10:20.031Z,15.79
2017-12-23T11:11:20.506Z,15.84
2017-12-23T11:12:20.981Z,15.91
2017-12-23T11:13:21.455Z,15.95
2017-12-23T11:14:21.920Z,15.98
2017-12-23T11:15:22.409Z,16.04
2017-12-23T11:16:22.891Z,16.09
2017-12-23T11:17:23.360Z,16.13
2017-12-23T11:18:23.839Z,16.17
2017-12-23T11:19:24.365Z,16.21
2017-12-23T11:20:24.790Z,16.26
2017-12-23T11:21:25.254Z,16.30
2017-12-23T11:22:25.744Z,16.34
2017-12-23T11:23:26.219Z,16.38
2017-12-23T11:25:27.169Z,16.46
2017-12-23T11:26:27.648Z,16.49
2017-12-23T11:27:28.128Z,16.51
2017-12-23T11:28:28.605Z,16.52
2017-12-23T11:29:40.959Z,16.52
2017-12-23T11:30:29.561Z,16.51
2017-12-23T11:31:30.023Z,16.47
2017-12-23T11:32:30.514Z,16.41
2017-12-23T11:33:30.991Z,16.33
2017-12-23T11:34:31.467Z,16.24
2017-12-23T11:35:31.943Z,16.11
2017-12-23T11:36:32.422Z,15.99
2017-12-23T11:37:32.898Z,15.84
2017-12-23T11:38:33.377Z,15.69
2017-12-23T11:39:33.901Z,15.53
2017-12-23T11:40:34.332Z,15.39
2017-12-23T11:41:34.837Z,15.23
2017-12-23T11:42:35.280Z,15.08
2017-12-23T11:43:35.756Z,14.93
2017-12-23T11:44:36.231Z,14.79
2017-12-23T11:45:36.708Z,14.64
2017-12-23T11:46:37.170Z,14.50
2017-12-23T11:47:37.658Z,14.36
2017-12-23T11:48:38.131Z,14.21
2017-12-23T11:49:38.661Z,14.07
2017-12-23T11:51:39.555Z,13.83
2017-12-23T11:52:40.031Z,13.76
2017-12-23T11:53:40.502Z,13.70
2017-12-23T11:54:40.963Z,13.66
2017-12-23T11:55:41.455Z,13.64
2017-12-23T11:56:41.926Z,13.61
2017-12-23T11:57:42.404Z,13.62
2017-12-23T11:58:42.875Z,13.65
2017-12-23T11:59:43.331Z,13.69
2017-12-23T12:00:43.818Z,13.74
2017-12-23T12:01:44.289Z,13.80
2017-12-23T12:02:44.762Z,13.86
2017-12-23T12:03:45.224Z,13.92
2017-12-23T12:04:45.761Z,13.99
2017-12-23T12:05:46.181Z,14.07
2017-12-23T12:06:46.643Z,14.15
2017-12-23T12:07:47.127Z,14.24
2017-12-23T12:08:47.598Z,14.31
2017-12-23T12:09:48.072Z,14.39
2017-12-23T12:11:49.019Z,14.56
2017-12-23T12:12:49.495Z,14.66
2017-12-23T12:13:49.969Z,14.75
2017-12-23T12:14:50.441Z,14.84
2017-12-23T12:15:50.904Z,14.95
2017-12-23T12:16:51.387Z,15.04
2017-12-23T12:17:51.866Z,15.14
2017-12-23T12:18:52.335Z,15.22
2017-12-23T12:19:52.862Z,15.31
2017-12-23T12:20:53.286Z,15.40
2017-12-23T12:21:53.758Z,15.48
2017-12-23T12:22:54.234Z,15.55
2017-12-23T12:23:54.693Z,15.62
2017-12-23T12:25:55.658Z,15.75
2017-12-23T12:26:56.130Z,15.81
2017-12-23T12:27:56.606Z,15.86
2017-12-23T12:28:57.081Z,15.92
2017-12-23T12:29:57.608Z,15.98
2017-12-23T12:30:58.030Z,16.05
2017-12-23T12:31:58.506Z,16.10
2017-12-23T12:32:58.970Z,16.16
2017-12-23T12:33:59.458Z,16.21
2017-12-23T12:34:59.970Z,16.28
2017-12-23T12:36:00.409Z,16.33
2017-12-23T12:38:01.362Z,16.41
2017-12-23T12:39:01.837Z,16.46
2017-12-23T12:40:02.311Z,16.51
2017-12-23T12:41:02.777Z,16.56
2017-12-23T12:42:03.264Z,16.60
2017-12-23T12:44:04.217Z,16.70
2017-12-23T12:45:04.693Z,16.74
2017-12-23T12:47:05.637Z,16.79
2017-12-23T12:49:06.602Z,16.74
2017-12-23T12:50:07.080Z,16.71
2017-12-23T12:53:08.499Z,16.45
2017-12-23T12:54:08.987Z,16.34
2017-12-23T12:55:09.466Z,16.20
2017-12-23T12:56:09.941Z,16.06
2017-12-23T12:57:10.406Z,15.90
2017-12-23T12:58:10.896Z,15.76
2017-12-23T12:59:11.358Z,15.61
2017-12-23T13:00:11.846Z,15.45
2017-12-23T13:01:12.324Z,15.29
2017-12-23T13:02:12.800Z,15.14
2017-12-23T13:03:13.274Z,14.98
2017-12-23T13:04:13.749Z,14.83
2017-12-23T13:05:14.226Z,14.68
2017-12-23T13:06:14.700Z,14.54
2017-12-23T13:07:15.175Z,14.38
2017-12-23T13:08:15.649Z,14.24
2017-12-23T13:09:16.109Z,14.10
2017-12-23T13:10:16.598Z,13.97
2017-12-23T13:11:17.073Z,13.88
2017-12-23T13:13:18.019Z,13.75
2017-12-23T13:15:19.019Z,13.67
2017-12-23T13:16:19.426Z,13.66
2017-12-23T13:17:19.912Z,13.66
2017-12-23T13:19:20.857Z,13.72
2017-12-23T13:20:21.315Z,13.75
2017-12-23T13:21:21.802Z,13.81
2017-12-23T13:22:22.275Z,13.88
2017-12-23T13:24:23.220Z,14.02
2017-12-23T13:25:23.742Z,14.12
2017-12-23T13:26:24.166Z,14.21
2017-12-23T13:27:24.624Z,14.30
2017-12-23T13:28:25.097Z,14.40
2017-12-23T13:31:26.582Z,14.71
2017-12-23T13:32:27.001Z,14.81
2017-12-23T13:34:27.950Z,15.00
2017-12-23T13:35:28.423Z,15.09
2017-12-23T13:36:41.087Z,15.18
2017-12-23T13:37:29.368Z,15.27
2017-12-23T13:38:29.846Z,15.35
2017-12-23T13:40:30.780Z,15.52
2017-12-23T13:41:31.312Z,15.60
2017-12-23T13:42:31.735Z,15.67
2017-12-23T13:43:32.212Z,15.74
2017-12-23T13:44:32.682Z,15.82
2017-12-23T13:45:33.158Z,15.89
2017-12-23T13:46:33.630Z,15.95
2017-12-23T13:47:34.107Z,16.01
2017-12-23T13:48:34.580Z,16.07
2017-12-23T13:49:35.044Z,16.13
2017-12-23T13:52:36.481Z,16.28
2017-12-23T13:53:36.955Z,16.32
2017-12-23T13:54:37.430Z,16.35
2017-12-23T13:55:37.908Z,16.38
2017-12-23T13:56:38.380Z,16.42
2017-12-23T13:57:38.843Z,16.45
2017-12-23T13:58:39.331Z,16.48
2017-12-23T13:59:39.808Z,16.50
2017-12-23T14:00:40.271Z,16.53
2017-12-23T14:01:40.757Z,16.56
2017-12-23T14:02:41.236Z,16.58
2017-12-23T14:03:41.696Z,16.59
2017-12-23T14:04:42.187Z,16.62
2017-12-23T14:05:42.662Z,16.64
2017-12-23T14:07:43.667Z,16.67
2017-12-23T14:08:44.090Z,16.67
2017-12-23T14:09:44.566Z,16.66
2017-12-23T14:10:45.044Z,16.63
2017-12-23T14:11:45.520Z,16.59
2017-12-23T14:13:46.459Z,16.44
2017-12-23T14:14:46.949Z,16.33
2017-12-23T14:15:47.425Z,16.20
2017-12-23T14:16:47.901Z,16.06
2017-12-23T14:17:48.428Z,15.90
2017-12-23T14:18:48.849Z,15.73
2017-12-23T14:19:49.332Z,15.55
2017-12-23T14:20:49.794Z,15.37
2017-12-23T14:21:50.280Z,15.19
2017-12-23T14:22:50.806Z,15.01
2017-12-23T14:23:51.217Z,14.82
2017-12-23T14:24:51.694Z,14.64
2017-12-23T14:25:52.167Z,14.46
2017-12-23T14:26:52.642Z,14.27
2017-12-23T14:27:53.116Z,14.10
2017-12-23T14:28:53.588Z,13.91
2017-12-23T14:29:54.064Z,13.75